createdAt,value
2022-08-17T00:02:25.847Z,99.23
2022-08-17T00:04:55.663Z,98.65
2022-08-17T00:07:23.669Z,99.34
2022-08-17T00:09:50.871Z,98.89
2022-08-17T00:12:51.162Z,98.56
2022-08-17T00:15:12.336Z,98.49
2022-08-17T00:17:42.468Z,98.89
2022-08-17T00:20:12.396Z,98.63
2022-08-17T00:22:39.996Z,98.49
2022-08-17T00:25:12.660Z,98.71
2022-08-17T00:27:40.805Z,98.73
2022-08-17T00:30:11.043Z,98.80
2022-08-17T00:33:14.543Z,99.07
2022-08-17T00:35:39.576Z,98.82
2022-08-17T00:38:10.337Z,99.19
2022-08-17T00:41:03.801Z,99.79
2022-08-17T00:43:44.539Z,100.00
2022-08-17T00:46:26.776Z,99.86
2022-08-17T00:48:54.343Z,100.00
2022-08-17T00:51:55.279Z,99.66
2022-08-17T00:54:41.927Z,99.44
2022-08-17T00:57:15.576Z,100.00
2022-08-17T01:00:02.330Z,100.00
2022-08-17T01:02:41.556Z,100.00
2022-08-17T01:05:18.475Z,100.00
2022-08-17T01:07:48.186Z,100.00
2022-08-17T01:10:59.083Z,100.00
2022-08-17T01:13:06.124Z,100.00
2022-08-17T01:15:36.065Z,100.00
2022-08-17T01:18:05.979Z,100.00
2022-08-17T01:20:47.843Z,100.00
2022-08-17T01:23:20.516Z,100.00
2022-08-17T01:25:55.617Z,100.00
2022-08-17T01:28:52.389Z,100.00
2022-08-17T01:31:13.339Z,100.00
2022-08-17T01:33:40.974Z,100.00
2022-08-17T01:36:09.159Z,100.00
2022-08-17T01:38:38.357Z,100.00
2022-08-17T01:41:16.704Z,100.00
2022-08-17T01:44:00.121Z,100.00
2022-08-17T01:46:34.781Z,100.00
2022-08-17T01:49:05.838Z,100.00
2022-08-17T01:51:34.059Z,100.00
2022-08-17T01:54:05.783Z,100.00
2022-08-17T01:56:35.420Z,100.00
2022-08-17T01:59:04.092Z,100.00
2022-08-17T02:01:34.019Z,100.00
2022-08-17T02:04:02.681Z,100.00
2022-08-17T02:06:45.199Z,100.00
2022-08-17T02:09:25.369Z,100.00
2022-08-17T02:11:57.879Z,100.00
2022-08-17T02:14:26.116Z,100.00
2022-08-17T02:16:54.387Z,100.00
2022-08-17T02:19:23.152Z,100.00
2022-08-17T02:21:53.309Z,100.00
2022-08-17T02:24:58.778Z,100.00
2022-08-17T02:27:15.584Z,100.00
2022-08-17T02:29:42.758Z,100.00
2022-08-17T02:32:27.693Z,100.00
2022-08-17T02:34:59.440Z,100.00
2022-08-17T02:37:28.576Z,100.00
2022-08-17T02:40:01.132Z,100.00
2022-08-17T02:42:40.855Z,100.00
2022-08-17T02:45:14.132Z,100.00
2022-08-17T02:47:42.436Z,100.00
2022-08-17T02:50:13.288Z,100.00
2022-08-17T02:52:43.601Z,100.00
2022-08-17T02:55:34.610Z,100.00
2022-08-17T02:58:04.435Z,100.00
2022-08-17T03:00:36.044Z,100.00
2022-08-17T03:03:06.133Z,100.00
2022-08-17T03:05:39.921Z,100.00
2022-08-17T03:08:12.966Z,100.00
2022-08-17T03:10:41.121Z,100.00
2022-08-17T03:13:08.196Z,100.00
2022-08-17T03:15:35.640Z,100.00
2022-08-17T03:18:04.502Z,100.00
2022-08-17T03:20:33.902Z,100.00
2022-08-17T03:23:02.028Z,100.00
2022-08-17T03:25:38.107Z,100.00
2022-08-17T03:28:07.195Z,100.00
2022-08-17T03:30:35.388Z,100.00
2022-08-17T03:35:55.353Z,100.00
2022-08-17T03:38:23.289Z,100.00
2022-08-17T03:40:59.066Z,100.00
2022-08-17T03:43:33.184Z,100.00
2022-08-17T03:46:28.402Z,100.00
2022-08-17T03:49:44.208Z,100.00
2022-08-17T03:52:33.023Z,100.00
2022-08-17T03:55:20.066Z,100.00
2022-08-17T03:58:03.148Z,100.00
2022-08-17T04:00:31.026Z,100.00
2022-08-17T04:02:59.537Z,100.00
2022-08-17T04:05:27.064Z,100.00
2022-08-17T04:07:54.309Z,100.00
2022-08-17T04:10:33.885Z,100.00
2022-08-17T04:13:06.014Z,100.00
2022-08-17T04:15:33.984Z,100.00
2022-08-17T04:18:01.202Z,100.00
2022-08-17T04:20:28.669Z,100.00
2022-08-17T04:22:59.823Z,100.00
2022-08-17T04:25:27.686Z,100.00
2022-08-17T04:27:56.010Z,100.00
2022-08-17T04:30:23.571Z,100.00
2022-08-17T04:33:05.222Z,100.00
2022-08-17T04:35:40.626Z,100.00
2022-08-17T04:38:09.699Z,100.00
2022-08-17T04:40:55.618Z,100.00
2022-08-17T04:43:24.658Z,100.00
2022-08-17T04:45:57.158Z,100.00
2022-08-17T04:48:35.571Z,100.00
2022-08-17T04:51:17.670Z,100.00
2022-08-17T04:53:55.231Z,100.00
2022-08-17T04:56:22.941Z,100.00
2022-08-17T04:58:52.580Z,100.00
2022-08-17T05:01:25.960Z,100.00
2022-08-17T05:03:56.469Z,100.00
2022-08-17T05:06:24.720Z,99.19
2022-08-17T05:08:52.263Z,96.00
2022-08-17T05:11:19.870Z,95.74
2022-08-17T05:13:50.467Z,93.22
2022-08-17T05:16:19.110Z,89.28
2022-08-17T05:18:47.309Z,87.61
2022-08-17T05:21:17.721Z,85.49
2022-08-17T05:23:46.221Z,83.52
2022-08-17T05:26:40.430Z,80.56
2022-08-17T05:29:09.731Z,81.00
2022-08-17T05:31:39.345Z,80.85
2022-08-17T05:34:07.486Z,77.43
2022-08-17T05:36:37.966Z,75.98
2022-08-17T05:39:16.114Z,75.79
2022-08-17T05:41:46.287Z,74.31
2022-08-17T05:44:13.653Z,72.59
2022-08-17T05:46:44.477Z,67.33
2022-08-17T05:49:15.074Z,66.02
2022-08-17T05:52:02.485Z,68.27
2022-08-17T05:54:42.576Z,65.16
2022-08-17T05:57:39.578Z,63.08
2022-08-17T06:00:30.633Z,61.16
2022-08-17T06:03:27.369Z,60.71
2022-08-17T06:06:17.494Z,59.10
2022-08-17T06:09:00.845Z,59.93
2022-08-17T06:11:53.439Z,59.98
2022-08-17T06:15:14.300Z,55.68
2022-08-17T06:17:43.351Z,58.78
2022-08-17T06:20:16.375Z,54.95
2022-08-17T06:22:51.882Z,53.72
2022-08-17T06:25:39.511Z,53.30
2022-08-17T06:28:13.834Z,51.30
2022-08-17T06:30:59.272Z,50.80
2022-08-17T06:33:37.987Z,49.29
2022-08-17T06:36:35.627Z,48.21
2022-08-17T06:39:27.714Z,46.84
2022-08-17T06:42:01.720Z,47.08
2022-08-17T06:45:03.759Z,45.63
2022-08-17T06:48:00.167Z,44.17
2022-08-17T06:50:36.448Z,44.52
2022-08-17T06:53:29.818Z,43.24
2022-08-17T06:56:10.675Z,42.98
2022-08-17T06:58:41.996Z,41.84
2022-08-17T07:01:18.254Z,42.13
2022-08-17T07:03:59.208Z,42.68
2022-08-17T07:06:38.773Z,42.13
2022-08-17T07:09:29.013Z,40.71
2022-08-17T07:12:00.322Z,41.54
2022-08-17T07:14:39.889Z,41.35
2022-08-17T07:17:10.998Z,41.25
2022-08-17T07:19:41.333Z,40.90
2022-08-17T07:22:57.538Z,40.54
2022-08-17T07:25:23.583Z,40.59
2022-08-17T07:27:54.073Z,40.35
2022-08-17T07:30:47.355Z,39.26
2022-08-17T07:33:20.445Z,40.16
2022-08-17T07:35:50.341Z,39.66
2022-08-17T07:38:25.259Z,39.77
2022-08-17T07:41:14.010Z,40.11
2022-08-17T07:43:41.163Z,38.59
2022-08-17T07:46:46.500Z,38.93
2022-08-17T07:49:13.536Z,38.82
2022-08-17T07:51:43.992Z,38.48
2022-08-17T07:54:21.708Z,38.58
2022-08-17T07:56:55.017Z,38.37
2022-08-17T07:59:27.199Z,37.55
2022-08-17T08:02:10.250Z,37.01
2022-08-17T08:05:08.898Z,36.49
2022-08-17T08:07:48.041Z,35.39
2022-08-17T08:10:33.739Z,35.95
2022-08-17T08:13:15.040Z,35.20
2022-08-17T08:15:53.942Z,36.99
2022-08-17T08:18:41.197Z,35.10
2022-08-17T08:21:49.148Z,35.00
2022-08-17T08:24:31.398Z,34.74
2022-08-17T08:27:27.396Z,35.05
2022-08-17T08:30:05.014Z,34.79
2022-08-17T08:32:57.278Z,34.73
2022-08-17T08:35:32.712Z,34.08
2022-08-17T08:38:08.626Z,33.62
2022-08-17T08:41:07.090Z,34.42
2022-08-17T08:44:13.894Z,34.26
2022-08-17T08:46:49.762Z,34.44
2022-08-17T08:50:03.444Z,34.16
2022-08-17T08:52:43.279Z,33.45
2022-08-17T08:55:44.873Z,33.15
2022-08-17T08:58:32.121Z,32.60
2022-08-17T09:01:16.737Z,33.92
2022-08-17T09:04:26.765Z,33.92
2022-08-17T09:07:15.601Z,33.56
2022-08-17T09:10:03.464Z,33.78
2022-08-17T09:16:03.492Z,34.88
2022-08-17T09:19:00.309Z,33.90
2022-08-17T09:21:56.749Z,34.98
2022-08-17T09:24:40.221Z,35.47
2022-08-17T09:27:22.380Z,35.84
2022-08-17T09:29:58.020Z,35.73
2022-08-17T09:32:55.525Z,35.83
2022-08-17T09:35:32.758Z,34.65
2022-08-17T09:38:19.626Z,35.34
2022-08-17T09:41:13.555Z,35.57
2022-08-17T09:44:01.906Z,35.53
2022-08-17T09:46:43.786Z,35.76
2022-08-17T09:49:42.770Z,35.88
2022-08-17T09:52:24.153Z,34.73
2022-08-17T09:54:53.689Z,34.48
2022-08-17T09:57:30.289Z,34.40
2022-08-17T10:00:16.955Z,35.13
2022-08-17T10:02:59.242Z,34.96
2022-08-17T10:05:48.104Z,34.85
2022-08-17T10:08:53.165Z,35.53
2022-08-17T10:11:55.241Z,34.78
2022-08-17T10:15:14.765Z,33.93
2022-08-17T10:17:47.781Z,31.36
2022-08-17T10:20:29.909Z,32.39
2022-08-17T10:23:31.976Z,31.84
2022-08-17T10:26:27.427Z,31.62
2022-08-17T10:29:10.640Z,31.08
2022-08-17T10:31:50.725Z,31.09
2022-08-17T10:34:40.983Z,30.91
2022-08-17T10:37:41.560Z,31.74
2022-08-17T10:40:26.542Z,31.30
2022-08-17T10:43:12.111Z,30.90
2022-08-17T10:46:31.699Z,31.44
2022-08-17T10:49:29.775Z,30.26
2022-08-17T10:52:04.227Z,29.96
2022-08-17T10:54:49.494Z,29.22
2022-08-17T10:57:32.209Z,29.03
2022-08-17T11:00:17.368Z,29.22
2022-08-17T11:02:49.725Z,29.48
2022-08-17T11:05:41.525Z,29.43
2022-08-17T11:08:19.855Z,30.05
2022-08-17T11:11:21.163Z,30.26
2022-08-17T11:14:04.924Z,30.39
2022-08-17T11:16:50.621Z,29.94
2022-08-17T11:20:08.025Z,29.51
2022-08-17T11:22:55.922Z,29.57
2022-08-17T11:25:36.545Z,29.08
2022-08-17T11:28:28.318Z,28.98
2022-08-17T11:30:59.617Z,29.55
2022-08-17T11:33:30.538Z,28.54
2022-08-17T11:36:25.534Z,28.51
2022-08-17T11:39:36.137Z,27.65
2022-08-17T11:42:21.386Z,29.31
2022-08-17T11:45:32.078Z,28.48
2022-08-17T11:48:46.070Z,27.76
2022-08-17T11:51:33.773Z,28.04
2022-08-17T11:56:53.296Z,27.83
2022-08-17T11:59:50.262Z,27.01
2022-08-17T12:02:29.891Z,28.13
2022-08-17T12:05:16.146Z,27.11
2022-08-17T12:08:05.008Z,26.97
2022-08-17T12:10:36.105Z,27.33
2022-08-17T12:13:16.244Z,27.45
2022-08-17T12:15:50.800Z,27.37
2022-08-17T12:18:28.389Z,28.67
2022-08-17T12:21:49.031Z,27.86
2022-08-17T12:24:18.861Z,27.55
2022-08-17T12:26:57.440Z,26.73
2022-08-17T12:29:38.404Z,27.98
2022-08-17T12:32:13.215Z,27.38
2022-08-17T12:34:43.057Z,27.01
2022-08-17T12:37:22.311Z,27.01
2022-08-17T12:40:05.032Z,27.67
2022-08-17T12:42:37.625Z,27.00
2022-08-17T12:45:22.163Z,26.31
2022-08-17T12:47:49.582Z,26.88
2022-08-17T12:50:29.813Z,26.41
2022-08-17T12:53:01.632Z,26.56
2022-08-17T12:55:36.783Z,26.89
2022-08-17T12:58:04.653Z,27.24
2022-08-17T13:00:41.177Z,27.00
2022-08-17T13:03:19.514Z,26.60
2022-08-17T13:05:52.692Z,26.20
2022-08-17T13:08:25.337Z,26.77
2022-08-17T13:10:58.230Z,26.89
2022-08-17T13:13:36.961Z,26.54
2022-08-17T13:16:17.813Z,26.38
2022-08-17T13:18:49.867Z,26.29
2022-08-17T13:21:19.987Z,26.63
2022-08-17T13:24:19.565Z,25.93
2022-08-17T13:26:46.514Z,25.83
2022-08-17T13:29:24.301Z,26.21
2022-08-17T13:32:03.844Z,25.93
2022-08-17T13:34:39.900Z,26.52
2022-08-17T13:37:30.811Z,26.28
2022-08-17T13:40:10.003Z,26.07
2022-08-17T13:42:51.486Z,26.25
2022-08-17T13:45:36.483Z,25.79
2022-08-17T13:48:16.199Z,25.83
2022-08-17T13:51:25.084Z,25.33
2022-08-17T13:53:57.448Z,25.94
2022-08-17T13:56:39.785Z,26.23
2022-08-17T13:59:15.294Z,25.13
2022-08-17T14:01:53.606Z,25.37
2022-08-17T14:04:28.545Z,26.11
2022-08-17T14:07:24.871Z,26.46
2022-08-17T14:10:00.443Z,26.64
2022-08-17T14:12:29.674Z,26.25
2022-08-17T14:14:59.320Z,26.82
2022-08-17T14:17:29.199Z,27.02
2022-08-17T14:19:56.323Z,26.67
2022-08-17T14:22:32.326Z,27.04
2022-08-17T14:25:02.021Z,28.03
2022-08-17T14:27:32.147Z,27.96
2022-08-17T14:30:00.381Z,25.75
2022-08-17T14:32:31.893Z,26.54
2022-08-17T14:34:59.921Z,25.99
2022-08-17T14:37:28.819Z,27.06
2022-08-17T14:40:00.378Z,27.01
2022-08-17T14:42:32.854Z,26.87
2022-08-17T14:45:00.345Z,25.80
2022-08-17T14:47:27.381Z,25.68
2022-08-17T14:49:54.213Z,26.10
2022-08-17T14:52:22.247Z,26.58
2022-08-17T14:54:51.736Z,25.96
2022-08-17T14:57:23.728Z,26.06
2022-08-17T15:00:02.262Z,27.19
2022-08-17T15:02:31.111Z,26.92
2022-08-17T15:05:06.177Z,27.49
2022-08-17T15:07:33.622Z,27.23
2022-08-17T15:10:02.375Z,27.73
2022-08-17T15:12:34.570Z,27.95
2022-08-17T15:15:14.382Z,27.54
2022-08-17T15:17:46.751Z,27.86
2022-08-17T15:20:21.440Z,28.80
2022-08-17T15:22:56.460Z,27.50
2022-08-17T15:25:32.313Z,27.38
2022-08-17T15:28:00.640Z,26.49
2022-08-17T15:30:30.577Z,26.49
2022-08-17T15:32:59.323Z,26.62
2022-08-17T15:35:30.969Z,26.87
2022-08-17T15:38:11.187Z,26.99
2022-08-17T15:40:42.412Z,27.46
2022-08-17T15:43:17.267Z,28.01
2022-08-17T15:45:59.588Z,27.86
2022-08-17T15:48:45.173Z,28.43
2022-08-17T15:51:31.150Z,28.25
2022-08-17T15:54:19.188Z,28.70
2022-08-17T15:56:52.457Z,28.63
2022-08-17T15:59:24.921Z,28.46
2022-08-17T16:03:14.688Z,29.07
2022-08-17T16:04:40.349Z,29.44
2022-08-17T16:07:12.182Z,28.95
2022-08-17T16:09:39.477Z,29.76
2022-08-17T16:12:16.343Z,30.48
2022-08-17T16:14:44.092Z,30.39
2022-08-17T16:17:15.591Z,31.30
2022-08-17T16:20:05.346Z,30.67
2022-08-17T16:22:35.789Z,30.81
2022-08-17T16:25:08.078Z,31.37
2022-08-17T16:27:35.442Z,31.75
2022-08-17T16:30:03.590Z,32.14
2022-08-17T16:32:32.875Z,32.82
2022-08-17T16:35:11.594Z,32.23
2022-08-17T16:37:44.583Z,33.20
2022-08-17T16:40:14.815Z,33.49
2022-08-17T16:42:45.929Z,34.24
2022-08-17T16:45:25.336Z,35.20
2022-08-17T16:47:53.805Z,37.53
2022-08-17T16:50:25.712Z,37.80
2022-08-17T16:52:53.163Z,38.03
2022-08-17T16:55:22.478Z,40.41
2022-08-17T16:57:50.553Z,40.92
2022-08-17T17:03:21.976Z,42.17
2022-08-17T17:05:58.111Z,42.34
2022-08-17T17:09:03.983Z,44.25
2022-08-17T17:11:44.493Z,44.32
2022-08-17T17:14:50.624Z,44.82
2022-08-17T17:17:46.775Z,44.60
2022-08-17T17:20:29.655Z,45.42
2022-08-17T17:23:18.823Z,45.43
2022-08-17T17:26:01.078Z,46.49
2022-08-17T17:28:44.102Z,47.57
2022-08-17T17:31:21.718Z,47.23
2022-08-17T17:34:04.250Z,47.87
2022-08-17T17:36:46.584Z,48.37
2022-08-17T17:39:46.850Z,48.50
2022-08-17T17:46:25.435Z,51.37
2022-08-17T17:48:50.870Z,51.96
2022-08-17T17:52:08.500Z,52.46
2022-08-17T17:55:03.458Z,53.01
2022-08-17T17:57:59.720Z,53.56
2022-08-17T18:00:41.652Z,54.31
2022-08-17T18:03:28.513Z,54.47
2022-08-17T18:06:06.992Z,54.73
2022-08-17T18:09:22.917Z,54.80
2022-08-17T18:12:15.483Z,55.61
2022-08-17T18:15:12.693Z,56.21
2022-08-17T18:17:58.916Z,55.75
2022-08-17T18:20:32.490Z,56.03
2022-08-17T18:23:10.993Z,56.23
2022-08-17T18:25:52.080Z,57.01
2022-08-17T18:28:32.825Z,57.27
2022-08-17T18:31:24.126Z,57.43
2022-08-17T18:35:08.707Z,57.94
2022-08-17T18:37:39.731Z,58.75
2022-08-17T18:40:33.556Z,58.33
2022-08-17T18:43:07.038Z,58.75
2022-08-17T18:46:28.828Z,59.68
2022-08-17T18:49:08.032Z,59.93
2022-08-17T18:51:42.898Z,60.23
2022-08-17T18:54:16.118Z,58.64
2022-08-17T18:57:02.584Z,59.82
2022-08-17T18:59:40.524Z,60.10
2022-08-17T19:02:38.709Z,60.56
2022-08-17T19:05:25.877Z,61.50
2022-08-17T19:07:56.304Z,61.45
2022-08-17T19:10:45.992Z,62.20
2022-08-17T19:13:29.614Z,63.28
2022-08-17T19:16:15.834Z,62.53
2022-08-17T19:19:08.849Z,62.96
2022-08-17T19:22:01.245Z,62.52
2022-08-17T19:24:33.284Z,65.17
2022-08-17T19:27:24.031Z,65.40
2022-08-17T19:29:58.300Z,65.65
2022-08-17T19:32:29.664Z,65.79
2022-08-17T19:34:58.778Z,65.85
2022-08-17T19:38:01.268Z,65.79
2022-08-17T19:41:06.499Z,66.66
2022-08-17T19:43:42.590Z,66.96
2022-08-17T19:46:20.702Z,67.60
2022-08-17T19:49:11.528Z,67.84
2022-08-17T19:52:05.376Z,68.62
2022-08-17T19:54:48.087Z,68.61
2022-08-17T19:57:53.403Z,68.91
2022-08-17T20:00:20.788Z,69.65
2022-08-17T20:03:33.409Z,70.24
2022-08-17T20:09:14.979Z,70.96
2022-08-17T20:12:00.717Z,71.12
2022-08-17T20:14:53.606Z,71.80
2022-08-17T20:20:28.197Z,72.03
2022-08-17T20:23:31.080Z,72.84
2022-08-17T20:26:22.108Z,72.54
2022-08-17T20:29:19.119Z,73.41
2022-08-17T20:32:07.928Z,73.51
2022-08-17T20:34:47.697Z,73.70
2022-08-17T20:37:17.996Z,73.59
2022-08-17T20:40:14.217Z,74.03
2022-08-17T20:42:48.576Z,74.69
2022-08-17T20:45:53.606Z,75.93
2022-08-17T20:48:38.628Z,75.62
2022-08-17T20:51:30.698Z,76.23
2022-08-17T20:57:34.521Z,76.96
2022-08-17T21:00:28.733Z,77.01
2022-08-17T21:03:23.531Z,77.19
2022-08-17T21:06:01.066Z,77.37
2022-08-17T21:08:58.726Z,77.58
2022-08-17T21:12:02.273Z,77.16
2022-08-17T21:14:40.706Z,77.36
2022-08-17T21:17:37.269Z,78.24
2022-08-17T21:20:32.325Z,78.46
2022-08-17T21:23:14.579Z,78.16
2022-08-17T21:26:30.214Z,78.41
2022-08-17T21:29:31.967Z,78.35
2022-08-17T21:32:00.761Z,78.89
2022-08-17T21:34:48.526Z,79.12
2022-08-17T21:37:34.689Z,79.86
2022-08-17T21:40:24.895Z,79.54
2022-08-17T21:42:56.567Z,79.43
2022-08-17T21:45:31.425Z,79.38
2022-08-17T21:48:23.839Z,79.38
2022-08-17T21:51:14.225Z,79.33
2022-08-17T21:53:53.009Z,79.70
2022-08-17T21:56:36.770Z,79.50
2022-08-17T21:59:22.316Z,80.02
2022-08-17T22:01:58.172Z,80.38
2022-08-17T22:05:11.503Z,80.24
2022-08-17T22:07:51.862Z,80.63
2022-08-17T22:10:35.173Z,81.24
2022-08-17T22:13:19.799Z,81.77
2022-08-17T22:16:29.084Z,81.27
2022-08-17T22:19:05.014Z,81.56
2022-08-17T22:21:33.677Z,81.41
2022-08-17T22:24:43.003Z,82.20
2022-08-17T22:27:16.051Z,81.97
2022-08-17T22:30:07.172Z,81.41
2022-08-17T22:32:45.028Z,82.60
2022-08-17T22:35:38.338Z,82.64
2022-08-17T22:38:35.638Z,83.02
2022-08-17T22:41:42.293Z,83.40
2022-08-17T22:44:27.926Z,83.64
2022-08-17T22:47:00.620Z,83.40
2022-08-17T22:49:53.865Z,84.43
2022-08-17T22:53:02.039Z,84.44
2022-08-17T22:55:52.696Z,84.68
2022-08-17T22:58:58.561Z,84.88
2022-08-17T23:01:36.345Z,84.79
2022-08-17T23:04:31.302Z,85.31
2022-08-17T23:06:58.804Z,85.00
2022-08-17T23:09:26.492Z,85.27
2022-08-17T23:11:59.093Z,85.98
2022-08-17T23:14:31.887Z,86.55
2022-08-17T23:17:07.169Z,87.36
2022-08-17T23:19:35.933Z,88.38
2022-08-17T23:22:07.137Z,88.48
2022-08-17T23:24:50.271Z,88.40
2022-08-17T23:30:11.755Z,88.88
2022-08-17T23:32:53.623Z,88.89
2022-08-17T23:35:40.223Z,88.99
2022-08-17T23:38:17.056Z,90.07
2022-08-17T23:40:45.037Z,89.73
2022-08-17T23:43:25.320Z,90.04
2022-08-17T23:45:59.504Z,89.24
2022-08-17T23:48:37.428Z,90.02
2022-08-17T23:51:09.592Z,91.10
2022-08-17T23:53:44.011Z,91.29
2022-08-17T23:56:12.076Z,91.26
2022-08-17T23:58:42.605Z,90.52
